createdAt,value
2019-05-02T00:01:58.188Z,8.50
2019-05-02T00:04:27.385Z,8.40
2019-05-02T00:07:09.296Z,8.40
2019-05-02T00:09:47.389Z,8.30
2019-05-02T00:12:14.745Z,8.40
2019-05-02T00:14:43.745Z,8.20
2019-05-02T00:17:12.558Z,8.20
2019-05-02T00:19:45.211Z,8.10
2019-05-02T00:22:12.270Z,7.80
2019-05-02T00:24:41.957Z,7.80
2019-05-02T00:27:10.491Z,7.80
2019-05-02T00:29:39.252Z,8.00
2019-05-02T00:32:08.266Z,8.00
2019-05-02T00:34:36.713Z,8.10
2019-05-02T00:37:05.584Z,8.10
2019-05-02T00:39:34.033Z,8.20
2019-05-02T00:42:12.471Z,8.00
2019-05-02T00:44:32.637Z,7.80
2019-05-02T00:47:06.093Z,7.80
2019-05-02T00:49:35.407Z,7.90
2019-05-02T00:52:04.546Z,7.90
2019-05-02T00:54:32.992Z,7.90
2019-05-02T00:57:02.084Z,8.00
2019-05-02T00:59:30.544Z,8.00
2019-05-02T01:02:12.926Z,8.10
2019-05-02T01:04:43.095Z,8.10
2019-05-02T01:07:12.092Z,7.90
2019-05-02T01:09:42.126Z,7.80
2019-05-02T01:12:11.055Z,7.80
2019-05-02T01:14:39.484Z,7.80
2019-05-02T01:17:08.096Z,7.70
2019-05-02T01:19:36.526Z,7.70
2019-05-02T01:22:05.038Z,7.80
2019-05-02T01:24:52.119Z,7.60
2019-05-02T01:27:41.276Z,7.70
2019-05-02T01:30:28.694Z,7.80
2019-05-02T01:33:01.353Z,7.70
2019-05-02T01:35:39.251Z,7.60
2019-05-02T01:38:26.192Z,7.70
2019-05-02T01:40:56.302Z,7.70
2019-05-02T01:43:26.903Z,7.80
2019-05-02T01:45:55.601Z,7.80
2019-05-02T01:48:24.624Z,7.70
2019-05-02T01:50:53.215Z,7.70
2019-05-02T01:53:22.752Z,7.70
2019-05-02T01:55:51.910Z,7.60
2019-05-02T01:58:22.922Z,7.50
2019-05-02T02:00:51.955Z,7.30
2019-05-02T02:03:20.522Z,7.40
2019-05-02T02:05:49.028Z,7.30
2019-05-02T02:08:18.050Z,7.10
2019-05-02T02:10:50.622Z,7.00
2019-05-02T02:13:17.371Z,7.00
2019-05-02T02:15:45.804Z,7.10
2019-05-02T02:18:15.530Z,7.10
2019-05-02T02:20:49.336Z,7.10
2019-05-02T02:23:36.342Z,7.10
2019-05-02T02:26:15.712Z,7.20
2019-05-02T02:28:44.559Z,7.30
2019-05-02T02:31:12.984Z,7.40
2019-05-02T02:33:48.056Z,7.30
2019-05-02T02:36:12.119Z,7.30
2019-05-02T02:38:40.552Z,7.20
2019-05-02T02:41:13.138Z,7.10
2019-05-02T02:43:39.528Z,7.10
2019-05-02T02:46:12.299Z,7.00
2019-05-02T02:48:42.700Z,6.90
2019-05-02T02:51:22.145Z,6.90
2019-05-02T02:53:41.505Z,6.90
2019-05-02T02:56:10.327Z,6.90
2019-05-02T02:58:45.695Z,6.70
2019-05-02T03:01:09.012Z,6.60
2019-05-02T03:03:37.448Z,6.60
2019-05-02T03:06:08.020Z,6.60
2019-05-02T03:08:44.690Z,6.60
2019-05-02T03:11:06.197Z,6.70
2019-05-02T03:13:52.307Z,6.70
2019-05-02T03:16:19.740Z,6.80
2019-05-02T03:18:48.325Z,6.80
2019-05-02T03:21:20.321Z,6.80
2019-05-02T03:23:46.920Z,6.70
2019-05-02T03:26:17.251Z,6.70
2019-05-02T03:28:57.185Z,6.50
2019-05-02T03:31:29.150Z,6.60
2019-05-02T03:33:55.040Z,6.60
2019-05-02T03:36:29.356Z,6.60
2019-05-02T03:38:47.459Z,6.60
2019-05-02T03:41:20.597Z,6.60
2019-05-02T03:43:46.680Z,6.50
2019-05-02T03:46:20.552Z,6.50
2019-05-02T03:48:45.635Z,6.40
2019-05-02T03:51:21.601Z,6.40
2019-05-02T03:53:44.909Z,6.40
2019-05-02T03:56:14.202Z,6.40
2019-05-02T03:58:48.404Z,6.40
2019-05-02T04:01:13.070Z,6.30
2019-05-02T04:03:43.797Z,6.30
2019-05-02T04:06:20.310Z,6.30
2019-05-02T04:08:44.109Z,6.30
2019-05-02T04:11:19.171Z,6.30
2019-05-02T04:13:48.659Z,6.40
2019-05-02T04:16:17.824Z,6.40
2019-05-02T04:18:54.692Z,6.30
2019-05-02T04:21:24.378Z,6.10
2019-05-02T04:23:48.290Z,6.20
2019-05-02T04:26:18.134Z,6.20
2019-05-02T04:28:51.545Z,6.30
2019-05-02T04:31:17.137Z,6.40
2019-05-02T04:33:45.573Z,6.50
2019-05-02T04:36:17.627Z,6.40
2019-05-02T04:38:51.085Z,6.40
2019-05-02T04:41:18.776Z,6.20
2019-05-02T04:43:51.483Z,5.90
2019-05-02T04:46:22.092Z,5.90
2019-05-02T04:48:49.753Z,6.10
2019-05-02T04:51:17.540Z,6.40
2019-05-02T04:53:49.542Z,6.30
2019-05-02T04:56:18.458Z,6.30
2019-05-02T04:58:49.368Z,6.50
2019-05-02T05:01:16.664Z,6.60
2019-05-02T05:03:49.230Z,6.40
2019-05-02T05:06:15.349Z,6.50
2019-05-02T05:08:44.127Z,6.60
2019-05-02T05:11:13.931Z,6.70
2019-05-02T05:13:42.748Z,7.00
2019-05-02T05:16:15.563Z,7.30
2019-05-02T05:18:43.956Z,7.60
2019-05-02T05:21:11.541Z,8.00
2019-05-02T05:23:44.710Z,8.00
2019-05-02T05:26:13.134Z,8.40
2019-05-02T05:28:44.374Z,8.40
2019-05-02T05:31:16.468Z,8.60
2019-05-02T05:33:42.498Z,8.70
2019-05-02T05:36:10.967Z,8.90
2019-05-02T05:38:40.774Z,9.00
2019-05-02T05:41:13.207Z,9.10
2019-05-02T05:43:39.589Z,9.30
2019-05-02T05:46:12.861Z,9.40
2019-05-02T05:48:40.790Z,9.50
2019-05-02T05:51:11.918Z,9.60
2019-05-02T05:53:39.442Z,9.70
2019-05-02T05:56:08.281Z,9.90
2019-05-02T05:58:39.770Z,10.10
2019-05-02T06:01:10.185Z,10.30
2019-05-02T06:03:41.508Z,10.40
2019-05-02T06:06:09.725Z,10.50
2019-05-02T06:08:37.834Z,10.60
2019-05-02T06:11:06.721Z,10.70
2019-05-02T06:13:38.047Z,10.70
2019-05-02T06:16:05.387Z,10.80
2019-05-02T06:18:36.220Z,10.80
2019-05-02T06:21:08.690Z,10.70
2019-05-02T06:23:36.409Z,10.80
2019-05-02T06:26:08.090Z,10.80
2019-05-02T06:28:36.205Z,10.90
2019-05-02T06:31:07.213Z,11.00
2019-05-02T06:33:35.990Z,11.20
2019-05-02T06:36:04.582Z,11.20
2019-05-02T06:38:33.027Z,11.10
2019-05-02T06:41:01.483Z,11.20
2019-05-02T06:43:29.921Z,11.30
2019-05-02T06:45:58.687Z,11.20
2019-05-02T06:48:27.119Z,11.10
2019-05-02T06:50:56.930Z,11.30
2019-05-02T06:53:27.309Z,11.10
2019-05-02T06:55:55.748Z,11.10
2019-05-02T06:58:24.490Z,11.30
2019-05-02T07:00:58.008Z,11.40
2019-05-02T07:03:23.201Z,11.30
2019-05-02T07:05:52.009Z,11.50
2019-05-02T07:08:20.454Z,11.70
2019-05-02T07:10:49.282Z,11.80
2019-05-02T07:13:17.744Z,11.90
2019-05-02T07:15:57.128Z,12.00
2019-05-02T07:18:27.225Z,12.20
2019-05-02T07:20:55.675Z,12.40
2019-05-02T07:23:24.494Z,12.60
2019-05-02T07:25:53.288Z,12.70
2019-05-02T07:28:23.938Z,12.70
2019-05-02T07:30:54.604Z,12.80
2019-05-02T07:33:22.685Z,12.90
2019-05-02T07:35:55.150Z,13.10
2019-05-02T07:38:25.794Z,13.20
2019-05-02T07:40:53.045Z,13.40
2019-05-02T07:43:22.387Z,13.40
2019-05-02T07:45:51.312Z,13.60
2019-05-02T07:48:19.864Z,13.70
2019-05-02T07:50:48.361Z,13.70
2019-05-02T07:53:17.200Z,13.80
2019-05-02T07:55:45.653Z,13.90
2019-05-02T07:58:14.096Z,14.20
2019-05-02T08:00:42.624Z,14.30
2019-05-02T08:03:11.068Z,14.40
2019-05-02T08:05:39.560Z,14.30
2019-05-02T08:08:07.996Z,14.50
2019-05-02T08:10:36.505Z,14.50
2019-05-02T08:13:05.269Z,14.40
2019-05-02T08:15:34.068Z,14.50
2019-05-02T08:18:02.530Z,14.60
2019-05-02T08:20:31.241Z,14.60
2019-05-02T08:22:59.702Z,14.60
2019-05-02T08:25:28.145Z,14.80
2019-05-02T08:27:58.243Z,15.00
2019-05-02T08:30:28.665Z,15.20
2019-05-02T08:32:57.800Z,15.40
2019-05-02T08:35:28.065Z,15.40
2019-05-02T08:37:56.685Z,15.50
2019-05-02T08:40:25.580Z,15.70
2019-05-02T08:42:54.398Z,15.80
2019-05-02T08:45:22.857Z,15.80
2019-05-02T08:47:51.296Z,15.70
2019-05-02T08:50:20.158Z,15.60
2019-05-02T08:52:52.866Z,15.80
2019-05-02T08:55:21.391Z,16.00
2019-05-02T08:57:50.097Z,16.30
2019-05-02T09:00:19.217Z,16.50
2019-05-02T09:02:47.992Z,16.50
2019-05-02T09:05:16.572Z,16.80
2019-05-02T09:07:45.035Z,16.90
2019-05-02T09:10:14.004Z,16.70
2019-05-02T09:12:45.494Z,16.90
2019-05-02T09:15:13.374Z,17.00
2019-05-02T09:17:46.517Z,17.20
2019-05-02T09:20:19.933Z,17.20
2019-05-02T09:22:46.696Z,17.30
2019-05-02T09:25:15.578Z,17.40
2019-05-02T09:27:44.047Z,17.70
2019-05-02T09:30:17.141Z,17.70
2019-05-02T09:32:43.472Z,17.70
2019-05-02T09:35:12.171Z,17.40
2019-05-02T09:37:41.942Z,17.40
2019-05-02T09:40:16.656Z,17.40
2019-05-02T09:42:47.564Z,17.20
2019-05-02T09:45:19.321Z,17.10
2019-05-02T09:47:58.199Z,17.10
2019-05-02T09:50:20.670Z,17.20
2019-05-02T09:52:48.444Z,17.30
2019-05-02T09:55:18.252Z,17.70
2019-05-02T09:57:47.231Z,17.70
2019-05-02T10:00:36.444Z,17.50
2019-05-02T10:03:05.675Z,17.70
2019-05-02T10:05:34.124Z,17.50
2019-05-02T10:08:06.747Z,17.30
2019-05-02T10:10:37.121Z,17.30
2019-05-02T10:13:03.923Z,17.20
2019-05-02T10:15:32.835Z,17.00
2019-05-02T10:18:10.576Z,17.00
2019-05-02T10:20:36.251Z,17.00
2019-05-02T10:23:03.304Z,17.10
2019-05-02T10:25:38.512Z,17.20
2019-05-02T10:28:02.326Z,17.60
2019-05-02T10:30:35.256Z,18.00
2019-05-02T10:33:02.956Z,18.30
2019-05-02T10:35:37.298Z,18.40
2019-05-02T10:38:03.379Z,18.20
2019-05-02T10:40:32.246Z,18.10
2019-05-02T10:43:02.847Z,18.10
2019-05-02T10:45:32.197Z,18.10
2019-05-02T10:48:02.299Z,18.20
2019-05-02T10:50:33.032Z,18.30
2019-05-02T10:53:03.534Z,18.50
2019-05-02T10:55:33.190Z,18.50
2019-05-02T10:58:02.040Z,18.40
2019-05-02T11:00:36.116Z,18.50
2019-05-02T11:03:28.065Z,18.40
2019-05-02T11:06:05.406Z,18.40
2019-05-02T11:08:28.410Z,18.50
2019-05-02T11:10:59.186Z,18.40
2019-05-02T11:13:32.276Z,18.30
2019-05-02T11:16:18.835Z,18.50
2019-05-02T11:18:48.935Z,18.50
2019-05-02T11:21:18.863Z,18.60
2019-05-02T11:23:47.581Z,18.70
2019-05-02T11:26:21.467Z,18.90
2019-05-02T11:28:46.668Z,19.00
2019-05-02T11:31:15.426Z,19.00
2019-05-02T11:33:44.262Z,19.00
2019-05-02T11:36:13.829Z,19.30
2019-05-02T11:38:45.248Z,19.40
2019-05-02T11:41:12.578Z,19.00
2019-05-02T11:43:42.445Z,19.10
2019-05-02T11:46:12.154Z,19.10
2019-05-02T11:48:54.757Z,19.20
2019-05-02T11:51:12.731Z,19.20
2019-05-02T11:53:41.999Z,19.20
2019-05-02T11:56:13.123Z,19.30
2019-05-02T11:58:48.219Z,19.40
2019-05-02T12:01:12.546Z,19.40
2019-05-02T12:03:45.525Z,19.40
2019-05-02T12:06:19.506Z,19.50
2019-05-02T12:08:49.211Z,19.60
2019-05-02T12:11:17.710Z,19.70
2019-05-02T12:13:47.349Z,19.60
2019-05-02T12:16:15.921Z,19.70
2019-05-02T12:18:44.692Z,19.60
2019-05-02T12:21:13.614Z,19.70
2019-05-02T12:23:42.127Z,19.60
2019-05-02T12:26:12.386Z,19.60
2019-05-02T12:28:42.787Z,19.60
2019-05-02T12:31:16.707Z,19.70
2019-05-02T12:33:44.412Z,19.90
2019-05-02T12:36:12.844Z,19.90
2019-05-02T12:38:42.090Z,20.10
2019-05-02T12:41:20.389Z,20.10
2019-05-02T12:43:41.694Z,20.10
2019-05-02T12:46:11.728Z,20.10
2019-05-02T12:48:42.227Z,20.10
2019-05-02T12:51:12.685Z,20.20
2019-05-02T12:53:44.251Z,20.30
2019-05-02T12:56:12.701Z,20.00
2019-05-02T12:58:42.144Z,19.70
2019-05-02T13:01:12.240Z,19.70
2019-05-02T13:03:43.648Z,20.00
2019-05-02T13:06:12.436Z,19.60
2019-05-02T13:08:52.111Z,19.50
2019-05-02T13:11:36.824Z,19.60
2019-05-02T13:14:04.235Z,19.60
2019-05-02T13:16:33.503Z,19.80
2019-05-02T13:19:06.020Z,19.90
2019-05-02T13:21:43.072Z,20.10
2019-05-02T13:24:29.550Z,20.10
2019-05-02T13:26:59.289Z,20.10
2019-05-02T13:29:38.753Z,20.40
2019-05-02T13:32:18.917Z,20.40
2019-05-02T13:34:58.586Z,20.30
2019-05-02T13:37:27.101Z,20.10
2019-05-02T13:40:06.333Z,19.80
2019-05-02T13:42:35.117Z,20.00
2019-05-02T13:45:06.269Z,20.30
2019-05-02T13:47:35.059Z,20.40
2019-05-02T13:50:04.913Z,20.40
2019-05-02T13:52:35.096Z,20.50
2019-05-02T13:55:08.627Z,20.70
2019-05-02T13:57:43.140Z,20.70
2019-05-02T14:00:08.369Z,20.70
2019-05-02T14:02:42.701Z,21.10
2019-05-02T14:05:14.243Z,21.10
2019-05-02T14:07:48.324Z,20.90
2019-05-02T14:10:39.107Z,20.90
2019-05-02T14:13:03.452Z,20.60
2019-05-02T14:15:39.185Z,20.60
2019-05-02T14:18:07.631Z,20.60
2019-05-02T14:20:42.816Z,20.60
2019-05-02T14:23:12.213Z,20.60
2019-05-02T14:25:42.581Z,20.90
2019-05-02T14:28:12.868Z,21.20
2019-05-02T14:30:45.944Z,21.10
2019-05-02T14:33:13.401Z,21.00
2019-05-02T14:35:42.589Z,20.60
2019-05-02T14:38:13.327Z,20.20
2019-05-02T14:40:54.251Z,19.90
2019-05-02T14:43:44.590Z,19.70
2019-05-02T14:46:12.555Z,19.40
2019-05-02T14:48:45.088Z,19.10
2019-05-02T14:51:16.512Z,18.90
2019-05-02T14:53:43.040Z,18.50
2019-05-02T14:56:16.347Z,18.40
2019-05-02T14:58:44.790Z,18.00
2019-05-02T15:01:17.171Z,17.10
2019-05-02T15:03:43.402Z,15.70
2019-05-02T15:06:12.127Z,14.90
2019-05-02T15:08:42.154Z,14.40
2019-05-02T15:11:12.537Z,14.10
2019-05-02T15:13:43.526Z,13.90
2019-05-02T15:16:17.761Z,13.90
2019-05-02T15:18:42.033Z,13.90
2019-05-02T15:21:16.337Z,14.00
2019-05-02T15:23:42.627Z,13.90
2019-05-02T15:26:13.657Z,13.80
2019-05-02T15:28:42.200Z,13.80
2019-05-02T15:31:28.520Z,13.70
2019-05-02T15:34:01.543Z,13.70
2019-05-02T15:36:27.945Z,13.60
2019-05-02T15:38:56.387Z,13.60
2019-05-02T15:41:24.837Z,13.60
2019-05-02T15:43:53.598Z,13.60
2019-05-02T15:46:28.097Z,13.60
2019-05-02T15:48:57.185Z,13.60
2019-05-02T15:51:27.447Z,13.60
2019-05-02T15:54:08.370Z,13.60
2019-05-02T15:56:35.890Z,13.70
2019-05-02T15:59:07.614Z,13.70
2019-05-02T16:01:41.624Z,13.70
2019-05-02T16:04:09.504Z,13.70
2019-05-02T16:06:38.327Z,13.70
2019-05-02T16:09:07.700Z,13.60
2019-05-02T16:11:36.176Z,13.60
2019-05-02T16:14:05.106Z,13.60
2019-05-02T16:16:36.646Z,13.50
2019-05-02T16:19:03.792Z,13.50
2019-05-02T16:21:36.831Z,13.50
2019-05-02T16:24:23.003Z,13.60
2019-05-02T16:26:55.159Z,13.70
2019-05-02T16:29:28.268Z,13.80
2019-05-02T16:32:05.573Z,13.90
2019-05-02T16:34:35.789Z,13.90
2019-05-02T16:37:16.591Z,14.00
2019-05-02T16:39:49.376Z,13.90
2019-05-02T16:42:15.161Z,13.80
2019-05-02T16:44:43.596Z,13.90
2019-05-02T16:47:13.940Z,13.90
2019-05-02T16:49:42.595Z,13.90
2019-05-02T16:52:12.785Z,14.00
2019-05-02T16:54:43.745Z,14.10
2019-05-02T16:57:12.604Z,14.10
2019-05-02T16:59:42.582Z,14.20
2019-05-02T17:02:12.212Z,14.20
2019-05-02T17:04:42.524Z,14.20
2019-05-02T17:07:12.663Z,14.10
2019-05-02T17:09:52.076Z,14.10
2019-05-02T17:12:20.927Z,14.00
2019-05-02T17:15:07.892Z,13.90
2019-05-02T17:17:36.445Z,13.90
2019-05-02T17:20:11.890Z,13.90
2019-05-02T17:22:37.376Z,13.80
2019-05-02T17:25:06.807Z,13.70
2019-05-02T17:27:35.245Z,13.80
2019-05-02T17:30:08.949Z,13.80
2019-05-02T17:32:37.980Z,13.90
2019-05-02T17:35:10.063Z,13.90
2019-05-02T17:37:40.646Z,14.00
2019-05-02T17:40:12.338Z,14.10
2019-05-02T17:42:44.438Z,14.10
2019-05-02T17:45:14.257Z,14.10
2019-05-02T17:47:43.025Z,14.10
2019-05-02T17:50:19.409Z,14.10
2019-05-02T17:52:48.418Z,14.00
2019-05-02T17:55:17.192Z,14.00
2019-05-02T17:57:45.973Z,14.00
2019-05-02T18:00:16.880Z,14.10
2019-05-02T18:02:47.047Z,14.00
2019-05-02T18:05:15.841Z,14.10
2019-05-02T18:07:44.627Z,14.10
2019-05-02T18:10:18.382Z,14.10
2019-05-02T18:12:47.734Z,14.10
2019-05-02T18:15:14.282Z,14.10
2019-05-02T18:17:43.070Z,14.00
2019-05-02T18:20:14.452Z,13.90
2019-05-02T18:22:47.144Z,13.80
2019-05-02T18:25:16.365Z,13.80
2019-05-02T18:27:43.513Z,13.80
2019-05-02T18:30:17.257Z,13.80
2019-05-02T18:32:45.553Z,13.80
2019-05-02T18:35:14.550Z,13.80
2019-05-02T18:37:46.731Z,13.70
2019-05-02T18:40:15.464Z,13.60
2019-05-02T18:42:44.309Z,13.60
2019-05-02T18:45:16.173Z,13.60
2019-05-02T18:47:44.604Z,13.50
2019-05-02T18:50:28.009Z,13.50
2019-05-02T18:52:56.515Z,13.60
2019-05-02T18:55:26.098Z,13.60
2019-05-02T18:57:57.106Z,13.30
2019-05-02T19:00:27.951Z,13.00
2019-05-02T19:02:56.555Z,12.90
2019-05-02T19:05:26.582Z,13.20
2019-05-02T19:07:56.493Z,13.20
2019-05-02T19:10:25.204Z,13.40
2019-05-02T19:12:56.060Z,13.40
2019-05-02T19:15:23.964Z,12.70
2019-05-02T19:17:53.022Z,11.90
2019-05-02T19:20:24.678Z,11.40
2019-05-02T19:22:56.864Z,11.00
2019-05-02T19:25:23.625Z,10.80
2019-05-02T19:27:57.597Z,10.90
2019-05-02T19:30:36.505Z,11.10
2019-05-02T19:33:07.823Z,11.20
2019-05-02T19:35:37.535Z,11.00
2019-05-02T19:38:05.908Z,10.90
2019-05-02T19:40:34.644Z,11.10
2019-05-02T19:43:07.523Z,11.00
2019-05-02T19:45:33.280Z,11.10
2019-05-02T19:48:02.685Z,10.80
2019-05-02T19:50:41.729Z,10.80
2019-05-02T19:53:14.879Z,10.70
2019-05-02T19:55:37.646Z,10.50
2019-05-02T19:58:06.928Z,10.40
2019-05-02T20:00:36.599Z,10.30
2019-05-02T20:03:05.558Z,10.50
2019-05-02T20:05:34.125Z,10.70
2019-05-02T20:08:02.909Z,11.00
2019-05-02T20:10:37.365Z,10.90
2019-05-02T20:13:05.905Z,11.10
2019-05-02T20:15:36.052Z,11.20
2019-05-02T20:18:04.981Z,11.30
2019-05-02T20:20:51.865Z,11.30
2019-05-02T20:23:28.578Z,11.40
2019-05-02T20:25:52.214Z,11.20
2019-05-02T20:28:21.815Z,11.00
2019-05-02T20:30:52.533Z,11.00
2019-05-02T20:33:22.259Z,11.00
2019-05-02T20:35:52.648Z,11.20
2019-05-02T20:38:21.962Z,11.30
2019-05-02T20:40:52.172Z,11.30
2019-05-02T20:43:22.616Z,11.10
2019-05-02T20:45:52.731Z,11.20
2019-05-02T20:48:22.725Z,11.30
2019-05-02T20:50:52.071Z,11.30
2019-05-02T20:53:28.807Z,11.20
2019-05-02T20:55:52.365Z,11.10
2019-05-02T20:58:21.975Z,11.20
2019-05-02T21:01:05.087Z,11.20
2019-05-02T21:03:21.103Z,11.00
2019-05-02T21:06:38.664Z,11.00
2019-05-02T21:09:16.003Z,11.00
2019-05-02T21:11:46.153Z,11.00
2019-05-02T21:14:14.633Z,11.00
2019-05-02T21:16:43.114Z,10.90
2019-05-02T21:19:12.407Z,10.90
2019-05-02T21:21:42.687Z,10.80
2019-05-02T21:24:11.296Z,10.80
2019-05-02T21:26:42.006Z,10.70
2019-05-02T21:29:11.990Z,10.60
2019-05-02T21:31:40.131Z,10.60
2019-05-02T21:34:08.579Z,10.60
2019-05-02T21:36:37.332Z,10.60
2019-05-02T21:39:08.928Z,10.50
2019-05-02T21:41:42.464Z,10.40
2019-05-02T21:44:12.948Z,10.40
2019-05-02T21:46:42.321Z,10.40
2019-05-02T21:49:12.076Z,10.40
2019-05-02T21:51:42.621Z,10.30
2019-05-02T21:54:18.733Z,10.40
2019-05-02T21:56:54.884Z,10.40
2019-05-02T21:59:23.598Z,10.40
2019-05-02T22:01:53.890Z,10.30
2019-05-02T22:04:22.714Z,10.40
2019-05-02T22:06:52.144Z,10.40
2019-05-02T22:09:23.191Z,10.40
2019-05-02T22:11:52.301Z,10.30
2019-05-02T22:14:22.262Z,10.30
2019-05-02T22:16:52.926Z,10.40
2019-05-02T22:19:21.327Z,10.40
2019-05-02T22:21:52.413Z,10.40
2019-05-02T22:24:21.322Z,10.20
2019-05-02T22:26:50.064Z,10.30
2019-05-02T22:29:18.926Z,10.30
2019-05-02T22:31:47.718Z,10.40
2019-05-02T22:34:16.148Z,10.40
2019-05-02T22:36:48.479Z,10.50
2019-05-02T22:39:35.244Z,10.50
2019-05-02T22:42:04.562Z,10.60
2019-05-02T22:44:33.333Z,10.50
2019-05-02T22:47:02.070Z,10.30
2019-05-02T22:49:31.875Z,10.30
2019-05-02T22:52:00.869Z,10.40
2019-05-02T22:54:33.939Z,10.40
2019-05-02T22:57:02.702Z,10.50
2019-05-02T22:59:31.682Z,10.50
2019-05-02T23:02:01.988Z,10.50
2019-05-02T23:04:32.559Z,10.50
2019-05-02T23:07:02.365Z,10.50
2019-05-02T23:09:31.213Z,10.60
2019-05-02T23:12:00.031Z,10.60
2019-05-02T23:14:28.460Z,10.60
2019-05-02T23:16:56.896Z,10.70
2019-05-02T23:19:25.348Z,10.60
2019-05-02T23:21:54.998Z,10.60
2019-05-02T23:24:36.273Z,10.50
2019-05-02T23:27:00.999Z,10.50
2019-05-02T23:29:29.445Z,10.50
2019-05-02T23:31:57.876Z,10.50
2019-05-02T23:34:26.333Z,10.50
2019-05-02T23:36:54.764Z,10.60
2019-05-02T23:39:23.226Z,10.70
2019-05-02T23:41:52.486Z,10.70
2019-05-02T23:44:22.836Z,10.70
2019-05-02T23:46:51.639Z,10.70
2019-05-02T23:49:22.027Z,10.70
2019-05-02T23:51:51.021Z,10.60
2019-05-02T23:54:19.458Z,10.60
2019-05-02T23:56:47.925Z,10.70
2019-05-02T23:59:16.617Z,10.60
